createdAt,value
2022-09-07T00:01:09.460Z,0.80
2022-09-07T00:03:40.826Z,1.00
2022-09-07T00:06:09.555Z,1.33
2022-09-07T00:08:37.099Z,1.67
2022-09-07T00:11:11.441Z,1.35
2022-09-07T00:13:40.109Z,1.33
2022-09-07T00:16:12.558Z,1.13
2022-09-07T00:18:45.771Z,0.93
2022-09-07T00:21:14.130Z,1.13
2022-09-07T00:23:45.832Z,1.40
2022-09-07T00:26:18.783Z,1.55
2022-09-07T00:28:46.324Z,1.80
2022-09-07T00:31:15.597Z,1.58
2022-09-07T00:33:45.850Z,1.33
2022-09-07T00:36:12.627Z,1.70
2022-09-07T00:38:39.422Z,1.40
2022-09-07T00:41:06.660Z,1.10
2022-09-07T00:43:35.065Z,1.30
2022-09-07T00:46:03.810Z,1.23
2022-09-07T00:49:01.150Z,1.10
2022-09-07T00:51:34.913Z,1.75
2022-09-07T00:54:12.535Z,1.30
2022-09-07T00:56:43.557Z,1.27
2022-09-07T00:59:12.221Z,1.42
2022-09-07T01:01:39.734Z,0.98
2022-09-07T01:04:11.541Z,1.27
2022-09-07T01:06:39.745Z,1.33
2022-09-07T01:09:12.822Z,1.42
2022-09-07T01:11:40.119Z,1.00
2022-09-07T01:14:12.050Z,1.27
2022-09-07T01:17:14.503Z,1.38
2022-09-07T01:20:25.837Z,1.85
2022-09-07T01:23:16.588Z,1.15
2022-09-07T01:25:56.042Z,1.50
2022-09-07T01:28:28.560Z,1.15
2022-09-07T01:30:59.130Z,1.55
2022-09-07T01:34:00.183Z,1.23
2022-09-07T01:36:48.723Z,1.35
2022-09-07T01:39:18.654Z,1.27
2022-09-07T01:42:10.953Z,1.42
2022-09-07T01:44:39.786Z,1.40
2022-09-07T01:47:15.422Z,1.07
2022-09-07T01:49:46.645Z,1.17
2022-09-07T01:52:33.714Z,1.25
2022-09-07T01:55:05.417Z,1.25
2022-09-07T01:57:42.990Z,1.42
2022-09-07T02:00:14.270Z,1.30
2022-09-07T02:02:44.928Z,1.23
2022-09-07T02:05:20.669Z,1.08
2022-09-07T02:08:03.080Z,1.40
2022-09-07T02:10:40.945Z,1.00
2022-09-07T02:13:14.502Z,1.30
2022-09-07T02:15:44.108Z,1.30
2022-09-07T02:20:47.719Z,1.33
2022-09-07T02:23:32.265Z,1.65
2022-09-07T02:26:14.208Z,1.20
2022-09-07T02:28:41.315Z,0.95
2022-09-07T02:31:08.502Z,0.98
2022-09-07T02:33:35.794Z,1.42
2022-09-07T02:36:04.397Z,1.10
2022-09-07T02:38:34.917Z,0.98
2022-09-07T02:41:02.897Z,1.20
2022-09-07T02:43:31.678Z,0.80
2022-09-07T02:46:16.613Z,1.07
2022-09-07T02:49:09.103Z,1.30
2022-09-07T02:52:13.378Z,1.02
2022-09-07T02:55:05.423Z,1.00
2022-09-07T02:57:49.851Z,1.10
2022-09-07T03:00:25.912Z,1.40
2022-09-07T03:03:14.635Z,1.75
2022-09-07T03:05:47.199Z,0.87
2022-09-07T03:08:24.993Z,1.02
2022-09-07T03:10:53.636Z,1.10
2022-09-07T03:13:27.184Z,0.98
2022-09-07T03:15:56.726Z,1.00
2022-09-07T03:20:56.201Z,1.08
2022-09-07T03:23:25.570Z,1.45
2022-09-07T03:25:52.720Z,1.35
2022-09-07T03:28:19.538Z,1.27
2022-09-07T03:30:48.663Z,1.40
2022-09-07T03:33:16.749Z,1.30
2022-09-07T03:35:44.938Z,1.40
2022-09-07T03:38:13.928Z,1.48
2022-09-07T03:40:43.232Z,1.70
2022-09-07T03:43:12.313Z,1.40
2022-09-07T03:45:39.077Z,1.30
2022-09-07T03:48:05.862Z,1.48
2022-09-07T03:50:37.363Z,1.77
2022-09-07T03:53:04.175Z,1.60
2022-09-07T03:55:31.296Z,1.90
2022-09-07T03:57:58.016Z,1.70
2022-09-07T04:00:26.078Z,1.88
2022-09-07T04:02:52.876Z,1.70
2022-09-07T04:05:22.164Z,1.77
2022-09-07T04:07:49.079Z,1.83
2022-09-07T04:10:18.337Z,1.60
2022-09-07T04:12:45.472Z,1.85
2022-09-07T04:15:12.610Z,1.80
2022-09-07T04:17:39.717Z,1.77
2022-09-07T04:20:07.197Z,2.10
2022-09-07T04:22:34.312Z,2.10
2022-09-07T04:25:08.780Z,1.83
2022-09-07T04:27:35.899Z,2.00
2022-09-07T04:30:05.604Z,2.00
2022-09-07T04:34:59.807Z,2.00
2022-09-07T04:37:26.949Z,1.75
2022-09-07T04:39:54.235Z,1.80
2022-09-07T04:42:21.531Z,1.90
2022-09-07T04:44:51.821Z,2.25
2022-09-07T04:47:19.776Z,2.20
2022-09-07T04:49:46.928Z,2.45
2022-09-07T04:52:16.262Z,2.50
2022-09-07T04:54:43.570Z,2.75
2022-09-07T04:57:11.556Z,2.55
2022-09-07T04:59:38.734Z,2.97
2022-09-07T05:02:08.434Z,3.22
2022-09-07T05:04:36.449Z,3.42
2022-09-07T05:07:06.072Z,5.82
2022-09-07T05:12:01.113Z,5.43
2022-09-07T05:14:27.911Z,7.05
2022-09-07T05:16:54.703Z,7.68
2022-09-07T05:19:21.971Z,6.53
2022-09-07T05:21:49.093Z,6.78
2022-09-07T05:24:15.840Z,7.22
2022-09-07T05:26:43.150Z,8.05
2022-09-07T05:31:58.925Z,7.60
2022-09-07T05:34:29.575Z,9.02
2022-09-07T05:36:57.178Z,9.30
2022-09-07T05:39:27.054Z,7.60
2022-09-07T05:41:54.410Z,8.02
2022-09-07T05:47:14.010Z,9.07
2022-09-07T05:49:41.368Z,8.48
2022-09-07T05:52:08.529Z,8.75
2022-09-07T05:54:35.377Z,8.65
2022-09-07T05:57:04.449Z,8.48
2022-09-07T05:59:31.434Z,8.70
2022-09-07T06:01:58.333Z,8.00
2022-09-07T06:04:25.328Z,8.63
2022-09-07T06:12:30.676Z,8.65
2022-09-07T06:14:57.461Z,9.10
2022-09-07T06:17:24.218Z,7.95
2022-09-07T06:19:51.308Z,6.70
2022-09-07T06:22:20.517Z,7.32
2022-09-07T06:24:47.265Z,6.30
2022-09-07T06:27:16.478Z,6.43
2022-09-07T06:29:43.270Z,6.97
2022-09-07T06:34:57.146Z,5.30
2022-09-07T06:37:23.910Z,5.70
2022-09-07T06:39:50.683Z,5.03
2022-09-07T06:42:17.440Z,5.75
2022-09-07T06:44:44.214Z,6.03
2022-09-07T06:47:10.975Z,5.88
2022-09-07T06:49:37.848Z,5.97
2022-09-07T06:52:07.062Z,5.65
2022-09-07T06:57:20.542Z,5.35
2022-09-07T06:59:47.445Z,5.93
2022-09-07T07:02:17.119Z,5.20
2022-09-07T07:07:14.682Z,5.95
2022-09-07T07:09:41.981Z,6.75
2022-09-07T07:12:10.154Z,6.47
2022-09-07T07:14:39.613Z,8.23
2022-09-07T07:17:10.301Z,8.70
2022-09-07T07:19:37.060Z,7.32
2022-09-07T07:22:45.533Z,8.07
2022-09-07T07:24:55.707Z,8.52
2022-09-07T07:27:24.927Z,8.40
2022-09-07T07:29:54.528Z,8.43
2022-09-07T07:34:48.279Z,7.82
2022-09-07T07:37:16.148Z,6.78
2022-09-07T07:42:29.608Z,6.00
2022-09-07T07:47:43.454Z,4.53
2022-09-07T07:55:46.616Z,3.45
2022-09-07T07:58:13.301Z,3.28
2022-09-07T08:00:57.891Z,5.63
2022-09-07T08:03:27.942Z,3.30
2022-09-07T08:05:55.281Z,2.47
2022-09-07T08:08:23.435Z,2.95
2022-09-07T08:10:50.434Z,2.45
2022-09-07T08:13:19.922Z,2.67
2022-09-07T08:18:15.741Z,2.47
2022-09-07T08:20:43.360Z,2.87
2022-09-07T08:23:10.660Z,2.45
2022-09-07T08:25:48.635Z,2.33
2022-09-07T08:28:15.281Z,2.53
2022-09-07T08:30:41.910Z,2.22
2022-09-07T08:33:10.828Z,2.13
2022-09-07T08:35:40.733Z,2.33
2022-09-07T08:38:07.719Z,2.05
2022-09-07T08:40:37.543Z,1.80
2022-09-07T08:43:39.238Z,1.90
2022-09-07T08:46:34.782Z,2.60
2022-09-07T08:49:07.023Z,2.75
2022-09-07T08:51:36.187Z,2.38
2022-09-07T08:54:05.677Z,2.38
2022-09-07T08:59:46.560Z,2.17
2022-09-07T09:05:23.248Z,2.33
2022-09-07T09:06:10.906Z,2.05
2022-09-07T09:07:57.354Z,1.70
2022-09-07T09:10:57.261Z,1.55
2022-09-07T09:13:49.661Z,1.50
2022-09-07T09:16:20.737Z,1.67
2022-09-07T09:19:07.200Z,5.45
2022-09-07T09:21:35.549Z,2.13
2022-09-07T09:24:10.171Z,1.80
2022-09-07T09:26:41.931Z,2.75
2022-09-07T09:29:17.554Z,2.47
2022-09-07T09:31:44.346Z,1.80
2022-09-07T09:34:23.808Z,2.42
2022-09-07T09:36:58.599Z,5.75
2022-09-07T09:39:34.281Z,1.98
2022-09-07T09:42:22.900Z,1.63
2022-09-07T09:44:50.787Z,1.60
2022-09-07T09:47:32.751Z,1.77
2022-09-07T09:50:06.737Z,1.60
2022-09-07T09:52:47.581Z,1.80
2022-09-07T09:55:34.840Z,1.70
2022-09-07T10:03:57.390Z,2.17
2022-09-07T10:06:26.628Z,2.00
2022-09-07T10:08:57.849Z,1.42
2022-09-07T10:14:32.262Z,1.90
2022-09-07T10:17:02.604Z,1.98
2022-09-07T10:19:42.679Z,1.95
2022-09-07T10:22:28.639Z,1.60
2022-09-07T10:24:57.984Z,1.70
2022-09-07T10:29:52.017Z,1.95
2022-09-07T10:32:25.002Z,2.35
2022-09-07T10:34:54.503Z,1.70
2022-09-07T10:37:27.189Z,1.90
2022-09-07T10:40:21.844Z,1.70
2022-09-07T10:46:03.330Z,1.75
2022-09-07T10:48:39.458Z,2.17
2022-09-07T10:51:14.506Z,1.73
2022-09-07T10:57:03.238Z,1.50
2022-09-07T11:03:24.888Z,2.13
2022-09-07T11:05:36.071Z,1.50
2022-09-07T11:08:20.640Z,1.70
2022-09-07T11:10:55.574Z,1.90
2022-09-07T11:13:25.544Z,2.00
2022-09-07T11:15:57.311Z,1.50
2022-09-07T11:18:32.278Z,1.48
2022-09-07T11:21:01.752Z,1.58
2022-09-07T11:23:31.395Z,1.50
2022-09-07T11:26:12.755Z,2.85
2022-09-07T11:29:29.247Z,3.35
2022-09-07T11:31:45.818Z,2.20
2022-09-07T11:34:35.135Z,1.58
2022-09-07T11:39:48.598Z,1.67
2022-09-07T11:42:49.609Z,1.73
2022-09-07T11:45:20.093Z,2.00
2022-09-07T11:47:49.019Z,1.75
2022-09-07T11:50:21.835Z,1.73
2022-09-07T11:52:53.508Z,1.90
2022-09-07T11:55:25.367Z,2.63
2022-09-07T11:58:10.923Z,1.60
2022-09-07T12:01:00.648Z,1.52
2022-09-07T12:03:45.470Z,1.85
2022-09-07T12:06:26.407Z,1.85
2022-09-07T12:09:11.226Z,1.60
2022-09-07T12:12:01.893Z,1.10
2022-09-07T12:14:56.845Z,1.23
2022-09-07T12:17:38.527Z,1.77
2022-09-07T12:20:14.276Z,1.45
2022-09-07T12:23:05.395Z,2.08
2022-09-07T12:25:35.848Z,1.60
2022-09-07T12:28:03.089Z,2.15
2022-09-07T12:30:30.630Z,1.23
2022-09-07T12:32:58.816Z,2.15
2022-09-07T12:35:28.468Z,1.80
2022-09-07T12:37:56.508Z,2.00
2022-09-07T12:40:33.066Z,1.42
2022-09-07T12:43:14.874Z,1.45
2022-09-07T12:45:44.639Z,1.70
2022-09-07T12:48:17.268Z,1.85
2022-09-07T12:51:07.501Z,1.60
2022-09-07T12:54:12.975Z,1.25
2022-09-07T13:00:19.800Z,1.92
2022-09-07T13:03:49.572Z,1.60
2022-09-07T13:06:09.619Z,2.00
2022-09-07T13:09:06.232Z,1.85
2022-09-07T13:11:34.202Z,1.40
2022-09-07T13:14:05.409Z,1.40
2022-09-07T13:19:46.715Z,1.50
2022-09-07T13:22:35.130Z,1.75
2022-09-07T13:25:09.388Z,1.65
2022-09-07T13:27:51.224Z,1.80
2022-09-07T13:30:23.935Z,1.67
2022-09-07T13:35:37.517Z,1.40
2022-09-07T13:38:05.174Z,1.70
2022-09-07T13:40:39.214Z,1.50
2022-09-07T13:43:13.694Z,1.98
2022-09-07T13:45:57.554Z,1.75
2022-09-07T13:48:46.138Z,1.50
2022-09-07T13:51:33.900Z,1.83
2022-09-07T13:54:11.470Z,2.25
2022-09-07T13:57:13.468Z,1.08
2022-09-07T13:59:42.608Z,1.35
2022-09-07T14:02:22.128Z,1.42
2022-09-07T14:04:54.885Z,0.98
2022-09-07T14:07:24.523Z,1.08
2022-09-07T14:10:12.433Z,1.40
2022-09-07T14:12:48.985Z,1.10
2022-09-07T14:15:30.188Z,1.00
2022-09-07T14:18:13.750Z,1.00
2022-09-07T14:21:00.006Z,0.70
2022-09-07T14:23:32.249Z,0.90
2022-09-07T14:26:18.482Z,1.00
2022-09-07T14:28:48.060Z,1.13
2022-09-07T14:33:56.879Z,1.30
2022-09-07T14:36:47.976Z,0.80
2022-09-07T14:39:17.328Z,1.23
2022-09-07T14:41:44.628Z,1.27
2022-09-07T14:44:31.709Z,1.27
2022-09-07T14:47:04.026Z,1.10
2022-09-07T14:49:32.820Z,0.95
2022-09-07T14:52:01.088Z,1.25
2022-09-07T14:54:34.887Z,1.20
2022-09-07T14:57:30.239Z,1.00
2022-09-07T15:00:17.237Z,1.40
2022-09-07T15:02:43.918Z,1.15
2022-09-07T15:05:19.363Z,0.90
2022-09-07T15:08:02.834Z,0.90
2022-09-07T15:10:41.250Z,1.10
2022-09-07T15:13:32.938Z,1.30
2022-09-07T15:16:05.430Z,1.10
2022-09-07T15:18:54.815Z,0.93
2022-09-07T15:21:33.282Z,0.93
2022-09-07T15:24:07.434Z,0.98
2022-09-07T15:27:04.299Z,1.17
2022-09-07T15:29:31.896Z,1.10
2022-09-07T15:32:03.887Z,1.55
2022-09-07T15:34:32.290Z,1.08
2022-09-07T15:37:00.215Z,0.93
2022-09-07T15:39:29.793Z,1.10
2022-09-07T15:41:57.823Z,1.02
2022-09-07T15:44:28.023Z,1.20
2022-09-07T15:49:49.299Z,1.17
2022-09-07T15:52:19.588Z,1.60
2022-09-07T15:54:49.060Z,1.20
2022-09-07T16:00:04.026Z,1.10
2022-09-07T16:05:20.218Z,0.90
2022-09-07T16:10:36.439Z,0.90
2022-09-07T16:13:10.515Z,1.38
2022-09-07T16:15:48.807Z,0.85
2022-09-07T16:18:17.773Z,0.93
2022-09-07T16:20:45.491Z,1.20
2022-09-07T16:23:14.746Z,1.13
2022-09-07T16:25:43.321Z,0.77
2022-09-07T16:28:10.881Z,1.00
2022-09-07T16:30:42.819Z,1.23
2022-09-07T16:33:09.616Z,0.93
2022-09-07T16:35:36.326Z,0.93
2022-09-07T16:40:52.197Z,1.27
2022-09-07T16:43:21.550Z,1.15
2022-09-07T16:48:32.703Z,1.00
2022-09-07T16:51:02.944Z,1.08
2022-09-07T16:53:30.932Z,1.17
2022-09-07T16:56:14.930Z,0.95
2022-09-07T16:58:45.086Z,1.30
2022-09-07T17:01:14.243Z,0.98
2022-09-07T17:06:13.829Z,1.02
2022-09-07T17:08:43.863Z,1.25
2022-09-07T17:11:12.591Z,0.88
2022-09-07T17:13:40.861Z,0.95
2022-09-07T17:16:10.267Z,1.30
2022-09-07T17:21:33.195Z,1.10
2022-09-07T17:24:06.396Z,1.10
2022-09-07T17:26:35.975Z,1.27
2022-09-07T17:29:03.127Z,1.35
2022-09-07T17:34:20.054Z,1.80
2022-09-07T17:36:47.309Z,1.50
2022-09-07T17:39:16.227Z,1.60
2022-09-07T17:41:46.508Z,1.50
2022-09-07T17:44:18.535Z,1.38
2022-09-07T17:46:47.322Z,1.65
2022-09-07T17:49:16.495Z,1.25
2022-09-07T17:51:44.588Z,1.20
2022-09-07T17:54:18.007Z,1.20
2022-09-07T17:56:45.169Z,1.67
2022-09-07T18:04:28.751Z,1.33
2022-09-07T18:06:57.930Z,1.50
2022-09-07T18:09:27.634Z,1.70
2022-09-07T18:11:56.971Z,1.50
2022-09-07T18:14:23.672Z,1.00
2022-09-07T18:16:52.812Z,1.90
2022-09-07T18:19:19.770Z,1.23
2022-09-07T18:21:48.002Z,1.63
2022-09-07T18:24:20.478Z,2.72
2022-09-07T18:26:50.388Z,1.42
2022-09-07T18:29:28.804Z,1.45
2022-09-07T18:31:58.115Z,1.60
2022-09-07T18:34:28.435Z,1.30
2022-09-07T18:36:58.170Z,1.40
2022-09-07T18:39:26.160Z,1.42
2022-09-07T18:41:54.153Z,1.70
2022-09-07T18:47:16.142Z,1.75
2022-09-07T18:49:47.891Z,1.40
2022-09-07T18:55:06.996Z,1.30
2022-09-07T18:57:34.192Z,1.67
2022-09-07T19:00:00.976Z,1.77
2022-09-07T19:02:27.810Z,1.90
2022-09-07T19:07:41.297Z,1.80
2022-09-07T19:10:08.257Z,1.70
2022-09-07T19:12:37.158Z,1.67
2022-09-07T19:15:04.088Z,1.90
2022-09-07T19:17:35.738Z,1.63
2022-09-07T19:20:03.211Z,2.15
2022-09-07T19:22:30.262Z,2.03
2022-09-07T19:24:56.924Z,1.63
2022-09-07T19:27:27.139Z,1.52
2022-09-07T19:29:53.856Z,1.80
2022-09-07T19:32:25.445Z,2.03
2022-09-07T19:34:55.925Z,2.10
2022-09-07T19:37:28.773Z,1.75
2022-09-07T19:39:55.955Z,1.80
2022-09-07T19:42:23.752Z,1.80
2022-09-07T19:44:53.841Z,1.77
2022-09-07T19:47:21.145Z,1.60
2022-09-07T19:49:49.826Z,1.90
2022-09-07T19:52:16.624Z,1.90
2022-09-07T19:54:43.914Z,1.77
2022-09-07T19:57:10.658Z,2.05
2022-09-07T19:59:37.865Z,1.50
2022-09-07T20:02:07.112Z,1.98
2022-09-07T20:04:43.467Z,2.10
2022-09-07T20:07:11.462Z,2.00
2022-09-07T20:09:40.863Z,1.95
2022-09-07T20:12:08.292Z,2.10
2022-09-07T20:14:35.375Z,2.20
2022-09-07T20:17:02.531Z,1.95
2022-09-07T20:19:32.091Z,2.15
2022-09-07T20:24:28.752Z,1.70
2022-09-07T20:26:58.365Z,1.80
2022-09-07T20:29:29.253Z,1.73
2022-09-07T20:32:01.202Z,2.10
2022-09-07T20:34:30.745Z,2.15
2022-09-07T20:39:25.411Z,2.03
2022-09-07T20:41:52.582Z,1.80
2022-09-07T20:44:19.784Z,2.00
2022-09-07T20:46:47.062Z,2.20
2022-09-07T20:49:14.210Z,1.58
2022-09-07T20:51:41.310Z,2.10
2022-09-07T20:54:10.881Z,1.83
2022-09-07T20:59:07.194Z,1.92
2022-09-07T21:01:36.966Z,2.20
2022-09-07T21:04:06.037Z,2.17
2022-09-07T21:06:35.733Z,2.10
2022-09-07T21:09:02.853Z,1.90
2022-09-07T21:11:33.642Z,2.17
2022-09-07T21:14:07.229Z,2.45
2022-09-07T21:16:34.755Z,2.22
2022-09-07T21:19:05.615Z,2.47
2022-09-07T21:21:38.349Z,1.98
2022-09-07T21:24:08.725Z,2.20
2022-09-07T21:26:35.804Z,2.20
2022-09-07T21:29:04.918Z,2.00
2022-09-07T21:31:33.435Z,2.00
2022-09-07T21:34:01.632Z,2.00
2022-09-07T21:36:29.063Z,2.03
2022-09-07T21:38:56.653Z,2.53
2022-09-07T21:41:24.540Z,2.20
2022-09-07T21:44:01.678Z,2.13
2022-09-07T21:46:32.390Z,1.88
2022-09-07T21:49:00.337Z,1.98
2022-09-07T21:51:27.903Z,2.25
2022-09-07T21:53:59.351Z,2.00
2022-09-07T21:56:29.931Z,2.25
2022-09-07T21:58:57.879Z,2.10
2022-09-07T22:01:28.609Z,2.30
2022-09-07T22:04:03.033Z,1.92
2022-09-07T22:06:30.984Z,2.10
2022-09-07T22:09:01.112Z,2.10
2022-09-07T22:11:28.969Z,2.15
2022-09-07T22:13:57.199Z,2.10
2022-09-07T22:16:24.542Z,2.28
2022-09-07T22:18:51.800Z,2.20
2022-09-07T22:21:20.598Z,2.28
2022-09-07T22:23:49.395Z,2.30
2022-09-07T22:26:21.024Z,2.30
2022-09-07T22:28:48.474Z,2.20
2022-09-07T22:31:23.375Z,2.10
2022-09-07T22:33:51.579Z,1.92
2022-09-07T22:36:20.029Z,2.08
2022-09-07T22:38:50.446Z,2.15
2022-09-07T22:41:18.862Z,2.35
2022-09-07T22:43:46.242Z,1.92
2022-09-07T22:46:13.837Z,1.90
2022-09-07T22:48:41.463Z,2.03
2022-09-07T22:51:09.249Z,2.28
2022-09-07T22:53:37.725Z,2.42
2022-09-07T22:56:08.913Z,2.25
2022-09-07T22:58:36.290Z,1.80
2022-09-07T23:01:03.947Z,2.28
2022-09-07T23:03:34.817Z,1.88
2022-09-07T23:06:02.235Z,1.95
2022-09-07T23:08:29.704Z,2.15
2022-09-07T23:10:56.794Z,2.25
2022-09-07T23:13:23.913Z,1.83
2022-09-07T23:15:51.107Z,1.83
2022-09-07T23:18:22.401Z,1.95
2022-09-07T23:20:52.099Z,2.00
2022-09-07T23:23:19.368Z,1.80
2022-09-07T23:25:46.523Z,2.10
2022-09-07T23:28:13.708Z,2.00
2022-09-07T23:30:40.960Z,2.20
2022-09-07T23:33:08.096Z,1.77
2022-09-07T23:35:35.251Z,2.20
2022-09-07T23:38:04.955Z,2.08
2022-09-07T23:40:32.703Z,1.92
2022-09-07T23:42:59.947Z,2.08
2022-09-07T23:45:27.325Z,2.45
2022-09-07T23:47:54.482Z,2.20
2022-09-07T23:50:21.850Z,1.70
2022-09-07T23:52:49.050Z,2.13
2022-09-07T23:55:16.793Z,1.92
2022-09-07T23:57:43.911Z,1.92
